Time;durP1;ratioP1;P1;durP2;ratioP2;P2;SDS_P1;SDS_P2;PMS_P1;PMS_P2;Temp;Humidity;BMP_temperature;BMP_pressure;BME280_temperature;BME280_humidity;BME280_pressure;Samples;Min_cycle;Max_cycle;Signal;HPM_P1;HPM_P2
2024/01/01 07:52:23;;;;;;;5.60;1.42;;;;;;;3.55;89.89;95998.25;2081184;28;20562;-59
2024/01/01 07:53:24;;;;;;;13.85;1.20;;;;;;;3.85;88.75;96004.28;2085522;28;20187;-59
2024/01/01 07:54:26;;;;;;;6.15;1.20;;;;;;;4.12;87.85;96003.56;2079151;28;20648;-59
2024/01/01 07:55:27;;;;;;;9.38;1.40;;;;;;;4.11;87.10;95996.69;2074348;28;20193;-59
2024/01/01 07:56:29;;;;;;;5.03;1.23;;;;;;;4.45;86.27;96008.59;2070332;28;20226;-59
2024/01/01 07:57:30;;;;;;;5.57;1.20;;;;;;;4.78;84.82;96008.44;2070750;28;20838;-60
2024/01/01 07:58:32;;;;;;;6.07;1.45;;;;;;;4.38;85.40;96013.97;2071728;28;20684;-61
2024/01/01 07:59:33;;;;;;;5.05;1.30;;;;;;;4.03;86.40;96004.66;2074312;28;20661;-62
2024/01/01 08:17:15;;;;;;;9.18;1.40;;;;;;;3.44;91.89;96055.31;2084322;28;20568;-61
2024/01/01 08:18:17;;;;;;;5.15;1.10;;;;;;;3.74;91.02;96021.81;2080763;28;20206;-61
2024/01/01 08:19:19;;;;;;;10.13;1.27;;;;;;;4.25;89.32;96028.13;2066163;28;20636;-61
2024/01/01 08:20:20;;;;;;;7.13;1.30;;;;;;;4.65;87.50;96026.94;2066567;28;20190;-71
2024/01/01 08:21:22;;;;;;;4.28;1.25;;;;;;;5.01;85.59;96024.06;2068520;28;20240;-72
2024/01/01 08:22:23;;;;;;;8.77;1.25;;;;;;;5.23;84.46;96020.75;2067187;28;20915;-63
2024/01/01 08:23:25;;;;;;;2.85;0.95;;;;;;;5.34;83.64;96021.25;2062512;28;20245;-62
2024/01/01 08:24:27;;;;;;;4.55;1.00;;;;;;;5.36;83.04;96009.09;2064316;28;20646;-61
2024/01/01 08:25:28;;;;;;;6.80;1.63;;;;;;;5.45;82.74;96020.06;2065974;28;20837;-61
2024/01/01 08:26:30;;;;;;;4.30;1.08;;;;;;;5.40;82.80;96020.22;2068138;28;20600;-62
2024/01/01 08:27:31;;;;;;;4.35;0.90;;;;;;;4.94;83.67;96022.59;2066668;28;20232;-62
2024/01/01 08:28:33;;;;;;;5.57;1.33;;;;;;;4.84;85.01;96016.00;2063692;28;20982;-61
2024/01/01 08:29:35;;;;;;;7.28;1.10;;;;;;;5.30;83.70;96011.91;2065343;28;20796;-61
2024/01/01 08:30:38;;;;;;;2.10;0.70;;;;;;;5.24;82.69;96001.75;2064143;28;20202;-61
2024/01/01 08:31:40;;;;;;;3.45;0.95;;;;;;;4.90;84.07;96020.97;2064753;28;20269;-62
2024/01/01 08:32:42;;;;;;;4.25;1.40;;;;;;;4.65;84.86;96021.75;2065281;28;20202;-62
2024/01/01 08:33:43;;;;;;;4.07;0.98;;;;;;;4.61;85.32;96004.66;2064647;28;20348;-62
2024/01/01 08:34:45;;;;;;;8.57;1.40;;;;;;;4.60;85.53;96015.88;2065744;28;20207;-61
2024/01/01 08:35:46;;;;;;;4.07;0.80;;;;;;;4.92;84.65;96019.19;2066331;28;20277;-62
2024/01/01 08:36:48;;;;;;;2.60;1.00;;;;;;;5.30;82.81;96009.31;2064406;28;20257;-62
2024/01/01 08:37:49;;;;;;;4.80;0.93;;;;;;;5.39;82.49;96013.34;2066684;28;20707;-62
2024/01/01 08:38:52;;;;;;;7.80;1.65;;;;;;;5.65;82.06;96012.44;2068049;28;20292;-62
2024/01/01 08:39:53;;;;;;;9.57;1.40;;;;;;;5.64;81.71;96002.97;2069663;28;20225;-62
2024/01/01 08:40:54;;;;;;;3.42;0.70;;;;;;;5.64;81.08;96009.91;2069152;28;20198;-63
2024/01/01 08:41:56;;;;;;;6.05;1.10;;;;;;;5.83;80.81;96013.53;2068634;28;20205;-63
2024/01/01 08:42:58;;;;;;;9.60;4.43;;;;;;;5.90;80.51;96021.91;2069720;28;20198;-63
2024/01/01 08:43:59;;;;;;;8.50;2.58;;;;;;;6.01;80.04;96017.22;2064702;28;20228;-63
2024/01/01 08:45:05;;;;;;;5.70;1.75;;;;;;;5.99;79.73;96015.59;2065293;28;20249;-63
2024/01/01 08:46:08;;;;;;;8.80;1.60;;;;;;;6.28;79.34;96011.91;2064041;28;20708;-61
2024/01/01 08:47:09;;;;;;;3.33;1.00;;;;;;;6.58;77.90;96018.56;2067648;28;20300;-61
2024/01/01 08:48:11;;;;;;;3.80;1.17;;;;;;;6.60;77.33;96012.44;2067409;28;20198;-61
2024/01/01 08:49:13;;;;;;;6.47;1.10;;;;;;;6.36;78.44;96016.81;2065916;28;20638;-62
2024/01/01 08:50:14;;;;;;;5.70;1.80;;;;;;;6.41;77.94;96016.63;2067529;28;20205;-62
2024/01/01 08:51:16;;;;;;;3.88;1.48;;;;;;;6.39;78.23;96016.69;2064371;28;20280;-62
2024/01/01 08:52:17;;;;;;;9.85;1.42;;;;;;;6.44;77.82;96021.72;2063507;28;20213;-61
2024/01/01 08:53:20;;;;;;;5.35;1.20;;;;;;;6.41;77.14;96025.25;2065472;28;20194;-63
2024/01/01 08:54:22;;;;;;;4.97;0.85;;;;;;;5.99;78.35;96019.03;2065389;28;20676;-62
2024/01/01 08:55:24;;;;;;;2.90;0.90;;;;;;;5.60;80.11;96021.25;2066476;28;20206;-62
2024/01/01 08:56:25;;;;;;;4.55;1.30;;;;;;;5.45;80.98;96025.25;2064243;28;20203;-61
2024/01/01 08:57:27;;;;;;;8.18;1.33;;;;;;;5.67;81.08;96025.31;2066561;28;20257;-62
2024/01/01 08:58:28;;;;;;;2.63;0.77;;;;;;;5.65;81.16;96027.97;2066070;28;20278;-62
2024/01/01 08:59:30;;;;;;;4.57;1.23;;;;;;;5.76;81.32;96031.94;2064324;28;20206;-61
2024/01/01 09:00:32;;;;;;;14.80;1.83;;;;;;;6.03;80.15;96023.19;2065654;28;20615;-61
2024/01/01 09:01:33;;;;;;;7.32;1.30;;;;;;;6.41;79.30;96035.63;2067295;28;20515;-62
2024/01/01 09:02:34;;;;;;;7.47;1.85;;;;;;;6.48;78.22;96031.91;2065438;28;20206;-61
2024/01/01 09:03:38;;;;;;;11.30;1.17;;;;;;;6.57;78.04;96027.28;2063381;28;20638;-62
2024/01/01 09:04:39;;;;;;;4.10;1.20;;;;;;;6.58;77.96;96034.13;2067185;28;20249;-62
2024/01/01 09:05:43;;;;;;;5.85;1.38;;;;;;;6.69;77.47;96045.81;2064886;28;20201;-63
2024/01/01 09:06:45;;;;;;;6.95;1.48;;;;;;;6.95;76.37;96030.94;2067856;28;20325;-64
2024/01/01 09:07:47;;;;;;;5.45;1.58;;;;;;;7.20;76.26;96032.56;2065683;28;20215;-62
2024/01/01 09:08:48;;;;;;;6.32;1.25;;;;;;;7.20;75.35;96037.75;2064763;28;20270;-63
2024/01/01 09:09:50;;;;;;;5.65;1.65;;;;;;;7.64;73.76;96035.06;2063954;28;20279;-61
2024/01/01 09:10:51;;;;;;;5.68;1.45;;;;;;;7.69;73.70;96029.66;2064466;28;20293;-62
2024/01/01 09:11:53;;;;;;;5.35;1.42;;;;;;;7.59;73.41;96000.63;2065578;28;21006;-62
2024/01/01 09:12:55;;;;;;;4.00;1.20;;;;;;;7.66;73.82;96033.22;2065993;28;20240;-62
2024/01/01 09:13:56;;;;;;;3.25;1.17;;;;;;;7.41;73.58;96023.03;2064573;28;20225;-63
2024/01/01 09:15:00;;;;;;;6.40;1.45;;;;;;;7.42;73.83;96029.09;2063381;28;20653;-62
2024/01/01 09:16:02;;;;;;;6.97;1.45;;;;;;;7.56;73.54;96026.72;2064305;28;20203;-72
2024/01/01 09:17:07;;;;;;;6.72;1.00;;;;;;;7.32;74.01;96032.03;2069157;28;20233;-72
2024/01/01 09:18:09;;;;;;;10.07;1.52;;;;;;;7.18;74.20;96018.78;2068826;28;20190;-72
2024/01/01 09:19:12;;;;;;;5.47;1.13;;;;;;;7.31;74.01;96043.38;2062973;28;20230;-72
2024/01/01 09:20:14;;;;;;;6.47;1.20;;;;;;;7.27;73.69;96038.34;2063237;28;20732;-72
2024/01/01 09:21:16;;;;;;;5.88;1.45;;;;;;;7.18;74.29;96037.81;2069223;28;20201;-72
2024/01/01 09:22:18;;;;;;;13.73;1.70;;;;;;;7.34;73.54;96038.03;2069267;28;20260;-72
2024/01/01 09:23:20;;;;;;;8.50;2.15;;;;;;;7.36;73.96;96037.97;2066587;28;20203;-70
2024/01/01 09:24:22;;;;;;;9.63;2.38;;;;;;;7.36;74.61;96048.34;2066528;28;20700;-69
2024/01/01 09:25:23;;;;;;;6.88;1.40;;;;;;;7.42;73.62;96045.50;2066468;28;20772;-69
2024/01/01 09:26:25;;;;;;;21.10;2.70;;;;;;;7.39;73.71;96042.19;2065712;28;20240;-68
2024/01/01 09:27:26;;;;;;;8.15;1.35;;;;;;;7.21;74.13;96041.19;2065108;28;20281;-72
2024/01/01 09:28:28;;;;;;;9.20;1.65;;;;;;;6.83;74.17;96041.81;2060483;28;20593;-73
2024/01/01 09:29:29;;;;;;;14.05;2.38;;;;;;;6.85;74.77;96038.25;2059754;28;20209;-73
2024/01/01 09:30:31;;;;;;;14.18;1.73;;;;;;;6.72;75.47;96026.69;2060444;28;20350;-73
2024/01/01 09:31:32;;;;;;;10.52;1.98;;;;;;;6.58;75.47;96045.38;2058742;28;20545;-73
2024/01/01 09:32:35;;;;;;;12.25;1.50;;;;;;;6.32;76.17;96044.63;2057065;28;20258;-73
2024/01/01 09:33:40;;;;;;;8.57;1.35;;;;;;;6.08;76.51;96040.31;2057851;28;20201;-73
2024/01/01 09:34:41;;;;;;;6.05;1.10;;;;;;;6.09;77.41;96037.66;2066447;28;20200;-73
2024/01/01 09:35:43;;;;;;;5.82;0.95;;;;;;;6.03;77.24;96040.47;2069532;28;20864;-73
2024/01/01 09:36:44;;;;;;;10.32;1.58;;;;;;;6.10;77.47;96038.53;2059122;28;20208;-73
2024/01/01 09:38:03;;;;;;;5.93;1.33;;;;;;;5.96;77.67;96041.59;2057983;28;20207;-73
2024/01/01 09:39:06;;;;;;;2.50;1.00;;;;;;;5.79;77.85;96045.63;2058264;28;20223;-63
2024/01/01 09:40:08;;;;;;;11.50;1.35;;;;;;;5.89;77.97;96049.59;2058455;28;20249;-63
2024/01/01 09:41:11;;;;;;;9.35;1.98;;;;;;;5.72;76.87;96024.25;2058300;28;20200;-63
2024/01/01 09:42:12;;;;;;;6.85;1.27;;;;;;;6.02;76.22;96039.66;2060334;28;20248;-63
2024/01/01 09:43:15;;;;;;;4.43;1.20;;;;;;;5.97;76.55;96045.88;2060090;28;20233;-63
2024/01/01 09:44:17;;;;;;;13.43;1.50;;;;;;;6.08;75.94;96035.97;2057358;28;20253;-64
2024/01/01 09:45:19;;;;;;;12.10;1.88;;;;;;;6.25;75.21;96021.53;2060977;28;20268;-72
2024/01/01 09:46:21;;;;;;;15.23;1.65;;;;;;;6.13;74.73;96010.75;2057885;28;20203;-72
2024/01/01 09:47:23;;;;;;;10.93;1.85;;;;;;;6.12;75.55;96031.53;2059822;28;20257;-73
2024/01/01 09:48:25;;;;;;;5.03;1.13;;;;;;;6.40;75.62;96027.91;2057209;28;20567;-72
2024/01/01 09:49:26;;;;;;;11.38;1.65;;;;;;;6.98;74.10;96035.19;2061007;28;20200;-63
2024/01/01 09:50:28;;;;;;;14.63;1.65;;;;;;;7.40;72.69;96034.31;2061894;28;20835;-63
2024/01/01 09:51:30;;;;;;;7.68;1.23;;;;;;;7.55;70.81;96038.03;2057367;28;20195;-63
2024/01/01 09:52:31;;;;;;;12.88;1.88;;;;;;;7.76;70.17;96043.25;2063540;28;20289;-64
2024/01/01 09:53:33;;;;;;;6.38;1.00;;;;;;;8.04;69.98;96032.47;2062761;28;20291;-63
2024/01/01 09:54:35;;;;;;;8.38;1.50;;;;;;;8.46;69.18;96021.06;2058101;28;20430;-63
2024/01/01 09:55:38;;;;;;;4.97;1.27;;;;;;;8.21;68.45;96042.13;2061862;28;20206;-64
2024/01/01 09:56:39;;;;;;;5.43;1.42;;;;;;;8.28;67.42;96032.31;2058462;28;20194;-64
2024/01/01 09:57:41;;;;;;;11.35;1.45;;;;;;;8.28;66.50;96048.75;2059543;28;20211;-63
2024/01/01 09:58:42;;;;;;;11.10;1.70;;;;;;;8.11;67.20;96038.25;2057374;28;20226;-64
2024/01/01 09:59:44;;;;;;;3.85;1.25;;;;;;;8.17;66.82;96023.19;2062141;28;20195;-63
2024/01/01 10:00:48;;;;;;;8.73;1.42;;;;;;;8.33;66.39;96043.34;2061928;28;20195;-63
2024/01/01 10:02:09;;;;;;;3.13;1.10;;;;;;;8.24;66.20;96047.19;2059088;28;20194;-63
2024/01/01 10:03:11;;;;;;;5.55;1.40;;;;;;;8.32;66.29;96042.47;2060357;28;20213;-63
2024/01/01 10:04:13;;;;;;;8.57;1.67;;;;;;;8.40;66.35;96051.69;2058294;28;20228;-63
2024/01/01 10:05:16;;;;;;;6.90;1.50;;;;;;;8.52;65.99;96035.56;2058871;28;20349;-64
2024/01/01 10:06:17;;;;;;;8.50;1.17;;;;;;;8.70;65.72;96046.00;2060003;28;20198;-64
2024/01/01 10:07:26;;;;;;;12.40;2.50;;;;;;;8.86;64.89;96036.56;2059851;28;20199;-64
2024/01/01 10:08:28;;;;;;;6.97;1.25;;;;;;;9.13;64.09;96038.78;2058902;28;20191;-63
2024/01/01 10:09:31;;;;;;;11.80;1.80;;;;;;;9.12;64.18;96024.06;2060886;28;20199;-64
2024/01/01 10:10:33;;;;;;;10.73;1.27;;;;;;;9.28;63.43;96038.03;2058992;28;20290;-63
2024/01/01 10:11:38;;;;;;;9.55;1.50;;;;;;;9.17;62.81;96052.47;2059207;28;20203;-64
2024/01/01 10:12:45;;;;;;;5.30;1.38;;;;;;;9.05;63.26;96031.31;2059494;28;20198;-64
2024/01/01 10:13:47;;;;;;;7.00;1.60;;;;;;;8.91;63.80;96052.84;2059997;28;20240;-64
2024/01/01 10:14:50;;;;;;;11.95;1.30;;;;;;;9.12;63.41;96011.06;2059885;28;20286;-73
2024/01/01 10:15:55;;;;;;;7.45;1.55;;;;;;;9.08;62.67;96033.78;2058380;28;20297;-73
2024/01/01 10:17:14;;;;;;;7.38;1.60;;;;;;;9.24;62.17;96033.03;2059228;28;20234;-73
2024/01/01 10:18:16;;;;;;;8.02;1.27;;;;;;;9.03;61.71;96022.75;2057769;28;20611;-73
2024/01/01 10:19:18;;;;;;;7.00;1.50;;;;;;;9.42;61.55;96031.28;2058247;28;20231;-72
2024/01/01 10:20:20;;;;;;;12.07;2.08;;;;;;;9.42;62.05;96036.50;2060049;28;20198;-71
2024/01/01 10:21:40;;;;;;;10.20;1.63;;;;;;;9.12;62.10;96034.50;2057660;28;20965;-72
2024/01/01 10:22:42;;;;;;;10.18;1.90;;;;;;;9.60;61.77;96040.78;2058715;28;20199;-71
2024/01/01 10:23:43;;;;;;;9.93;2.85;;;;;;;9.97;61.40;96043.28;2059212;28;20229;-71
2024/01/01 10:24:46;;;;;;;11.43;1.95;;;;;;;10.34;60.23;96041.34;2058009;28;20252;-72
2024/01/01 10:25:51;;;;;;;8.30;1.30;;;;;;;10.12;59.95;96052.91;2059854;28;20201;-72
2024/01/01 10:26:53;;;;;;;7.65;1.50;;;;;;;9.69;61.01;96020.38;2059490;28;20201;-72
2024/01/01 10:27:58;;;;;;;10.05;1.50;;;;;;;9.17;61.22;96032.50;2059358;28;20450;-71
2024/01/01 10:29:00;;;;;;;5.30;1.45;;;;;;;9.24;61.77;96043.47;2058599;28;20265;-72
2024/01/01 10:30:02;;;;;;;9.65;1.63;;;;;;;9.13;62.36;96034.41;2058756;28;20620;-71
2024/01/01 10:31:04;;;;;;;6.80;1.33;;;;;;;8.95;63.20;96045.69;2059882;28;20407;-71
2024/01/01 10:32:07;;;;;;;11.93;1.95;;;;;;;8.16;64.81;96055.34;2058352;28;20226;-72
2024/01/01 10:33:10;;;;;;;8.80;1.73;;;;;;;7.63;67.12;96048.97;2059145;28;20201;-72
2024/01/01 10:34:12;;;;;;;7.22;1.52;;;;;;;7.47;68.33;96042.72;2060626;28;20309;-71
2024/01/01 10:35:16;;;;;;;9.63;1.75;;;;;;;7.55;68.31;96048.41;2058681;28;20207;-71
2024/01/01 10:36:19;;;;;;;8.07;1.75;;;;;;;8.05;67.19;96051.50;2057609;28;20255;-71
2024/01/01 10:37:23;;;;;;;5.60;1.30;;;;;;;7.78;67.54;96051.81;2059596;28;20786;-72
2024/01/01 10:38:26;;;;;;;9.30;1.55;;;;;;;7.21;68.92;96052.41;2059025;28;20214;-70
2024/01/01 10:39:29;;;;;;;4.47;1.25;;;;;;;6.80;69.61;96042.78;2058340;28;20665;-71
2024/01/01 10:40:31;;;;;;;9.13;1.45;;;;;;;6.56;70.33;96041.97;2058087;28;20349;-72
2024/01/01 10:41:35;;;;;;;9.75;1.42;;;;;;;6.29;71.29;96055.09;2057456;28;20280;-72
2024/01/01 10:42:37;;;;;;;11.75;1.95;;;;;;;6.25;70.85;96053.53;2058749;28;20255;-71
2024/01/01 10:43:40;;;;;;;13.23;1.63;;;;;;;6.10;71.62;96048.91;2058051;28;20212;-72
2024/01/01 10:44:42;;;;;;;3.30;1.20;;;;;;;6.11;72.66;96053.19;2059883;28;20640;-72
2024/01/01 10:45:45;;;;;;;5.95;1.23;;;;;;;6.06;72.88;96058.53;2059693;28;20282;-72
2024/01/01 10:46:47;;;;;;;6.30;1.25;;;;;;;6.01;72.96;96069.06;2059771;28;20258;-72
2024/01/01 10:47:49;;;;;;;9.60;1.95;;;;;;;6.04;72.63;96062.91;2067445;28;20209;-71
2024/01/01 10:48:52;;;;;;;7.55;1.23;;;;;;;6.56;71.13;96061.91;2050027;28;20292;-71
2024/01/01 10:50:07;;;;;;;12.50;1.50;;;;;;;6.80;70.19;96065.31;2059247;28;20215;-71
2024/01/01 10:51:28;;;;;;;9.02;1.40;;;;;;;6.95;69.50;96069.06;2058273;28;20454;-70
2024/01/01 10:52:46;;;;;;;8.43;1.73;;;;;;;6.56;70.97;96056.72;2060452;28;20286;-72
2024/01/01 10:54:02;;;;;;;15.10;2.30;;;;;;;6.47;71.76;96058.75;2058258;28;20220;-71
2024/01/01 10:55:29;;;;;;;16.15;2.47;;;;;;;6.16;71.76;96043.50;2058292;28;20279;-65
2024/01/01 10:56:46;;;;;;;11.63;1.33;;;;;;;6.14;72.47;96066.88;2060709;28;20249;-65
2024/01/01 10:58:02;;;;;;;9.60;2.22;;;;;;;6.10;72.88;96070.47;2059993;28;20198;-65
2024/01/01 10:59:21;;;;;;;4.32;1.63;;;;;;;5.98;72.82;96068.28;2056782;28;20313;-65
2024/01/01 11:00:34;;;;;;;7.85;1.63;;;;;;;5.96;73.03;96064.91;2058558;28;20202;-65
2024/01/01 11:01:37;;;;;;;5.20;1.40;;;;;;;5.95;72.66;96069.25;2058917;28;20211;-65
2024/01/01 11:02:41;;;;;;;21.38;1.75;;;;;;;5.88;72.92;96066.03;2060069;28;20202;-65
2024/01/01 11:03:47;;;;;;;15.90;2.58;;;;;;;5.88;73.17;96067.78;2059600;28;20201;-65
2024/01/01 11:05:05;;;;;;;7.80;1.92;;;;;;;5.81;72.57;96067.13;2062352;28;20210;-65
2024/01/01 11:06:33;;;;;;;11.77;2.97;;;;;;;5.92;73.19;96076.28;2060563;28;20256;-65
2024/01/01 11:07:52;;;;;;;12.07;2.55;;;;;;;5.93;73.67;96080.56;2059747;28;20283;-65
2024/01/01 11:08:55;;;;;;;7.45;1.88;;;;;;;5.87;73.59;96073.88;2057935;28;20252;-65
2024/01/01 11:09:57;;;;;;;7.65;1.13;;;;;;;5.86;73.05;96075.59;2059489;28;20195;-64
2024/01/01 11:11:32;;;;;;;8.98;1.73;;;;;;;5.85;73.61;96083.44;2058561;28;20230;-63
2024/01/01 11:12:34;;;;;;;9.02;1.80;;;;;;;5.86;73.18;96078.19;2059578;28;20853;-66
2024/01/01 11:13:39;;;;;;;41.88;11.57;;;;;;;5.92;72.53;96078.88;2058028;28;20286;-63
2024/01/01 11:14:45;;;;;;;11.68;1.98;;;;;;;5.94;73.10;96072.75;2058510;28;20206;-64
2024/01/01 11:15:46;;;;;;;12.60;2.83;;;;;;;5.98;72.75;96078.66;2058090;28;20213;-62
2024/01/01 11:16:50;;;;;;;12.65;2.10;;;;;;;6.27;72.37;96081.97;2058281;28;20235;-65
2024/01/01 11:17:55;;;;;;;12.27;1.95;;;;;;;6.52;71.75;96082.75;2066360;28;20202;-65
2024/01/01 11:18:57;;;;;;;16.25;1.92;;;;;;;6.90;70.64;96083.97;2064374;28;20364;-65
2024/01/01 11:19:59;;;;;;;14.70;1.98;;;;;;;6.76;70.06;96072.34;2060372;28;20255;-64
2024/01/01 11:21:01;;;;;;;12.60;2.10;;;;;;;6.60;70.63;96082.50;2058940;28;20592;-65
2024/01/01 11:22:29;;;;;;;11.68;1.75;;;;;;;6.47;71.75;96082.09;2056186;28;20214;-64
2024/01/01 11:23:43;;;;;;;7.30;1.98;;;;;;;6.21;72.50;96075.28;2064183;28;20574;-65
2024/01/01 11:24:47;;;;;;;9.07;1.67;;;;;;;6.15;72.79;96083.28;2062210;28;20620;-64
2024/01/01 11:25:50;;;;;;;11.20;2.00;;;;;;;5.95;72.93;96069.25;2062649;28;20204;-64
2024/01/01 11:26:52;;;;;;;18.25;2.78;;;;;;;5.99;73.32;96091.63;2057769;28;20209;-67
2024/01/01 11:27:54;;;;;;;10.65;1.35;;;;;;;5.96;73.63;96094.25;2057833;28;20200;-66
2024/01/01 11:29:03;;;;;;;13.25;1.95;;;;;;;5.90;74.53;96120.38;2061180;28;20317;-64
2024/01/01 11:30:07;;;;;;;4.45;1.60;;;;;;;5.76;75.14;96089.78;2062524;28;20296;-65
2024/01/01 11:31:09;;;;;;;3.70;1.15;;;;;;;5.69;75.29;96096.09;2059064;28;20250;-65
2024/01/01 11:32:11;;;;;;;6.85;1.80;;;;;;;5.70;75.24;96077.03;2059796;28;20673;-65
2024/01/01 11:33:13;;;;;;;6.45;1.38;;;;;;;5.81;75.19;96087.03;2058748;28;20198;-65
2024/01/01 11:34:16;;;;;;;9.32;2.00;;;;;;;6.60;73.14;96098.06;2045414;28;20234;-64
2024/01/01 11:35:27;;;;;;;8.57;1.70;;;;;;;6.75;72.10;96090.59;2060298;28;20206;-63
2024/01/01 11:36:30;;;;;;;16.67;2.10;;;;;;;6.52;72.71;96084.53;2057970;28;20218;-65
2024/01/01 11:37:32;;;;;;;11.55;1.40;;;;;;;6.11;72.97;96068.75;2058541;28;20517;-65
2024/01/01 11:38:34;;;;;;;13.77;2.13;;;;;;;6.73;72.21;96084.59;2057793;28;20222;-65
2024/01/01 11:39:36;;;;;;;17.02;2.50;;;;;;;7.00;71.16;96091.31;2058141;28;20215;-65
2024/01/01 11:40:37;;;;;;;11.88;1.98;;;;;;;6.76;71.82;96081.91;2059086;28;20626;-67
2024/01/01 11:41:39;;;;;;;12.63;1.85;;;;;;;6.33;72.71;96067.03;2058449;28;20241;-68
2024/01/01 11:42:41;;;;;;;10.35;2.40;;;;;;;6.12;73.37;96091.16;2056343;28;20203;-65
2024/01/01 11:43:43;;;;;;;8.55;1.92;;;;;;;5.90;74.66;96084.09;2057902;28;20612;-66
2024/01/01 11:44:45;;;;;;;14.80;2.67;;;;;;;5.76;75.16;96084.59;2060262;28;20313;-65
2024/01/01 11:45:46;;;;;;;11.25;2.05;;;;;;;5.62;75.55;96095.41;2062317;28;20283;-65
2024/01/01 11:47:02;;;;;;;9.32;1.50;;;;;;;5.48;76.16;96075.16;2059522;28;20229;-65
2024/01/01 11:48:05;;;;;;;12.13;1.48;;;;;;;5.57;76.99;96094.72;2057107;28;20206;-65
2024/01/01 11:49:08;;;;;;;15.27;1.95;;;;;;;5.53;78.02;96093.97;2057974;28;20214;-65
2024/01/01 11:50:11;;;;;;;9.13;1.80;;;;;;;5.56;77.83;96086.13;2057789;28;20671;-66
2024/01/01 11:51:13;;;;;;;11.93;2.20;;;;;;;5.85;77.32;96086.00;2058066;28;20198;-65
2024/01/01 11:52:16;;;;;;;13.63;1.98;;;;;;;6.04;77.02;96089.69;2062813;28;20205;-65
2024/01/01 11:53:18;;;;;;;12.60;2.40;;;;;;;6.09;77.80;96086.09;2062749;28;20268;-65
2024/01/01 11:54:21;;;;;;;10.18;1.98;;;;;;;6.23;77.19;96076.06;2061967;28;20735;-65
2024/01/01 11:55:25;;;;;;;4.70;1.40;;;;;;;6.88;75.38;96085.78;2056134;28;20199;-65
2024/01/01 11:56:27;;;;;;;12.60;2.03;;;;;;;7.13;73.69;96091.69;2055869;28;20253;-66
2024/01/01 11:57:29;;;;;;;8.00;1.50;;;;;;;7.57;72.38;96084.72;2063489;28;20229;-66
2024/01/01 11:58:31;;;;;;;11.27;1.95;;;;;;;7.74;71.84;96081.44;2057888;28;20687;-66
2024/01/01 11:59:34;;;;;;;11.20;1.80;;;;;;;7.60;71.67;96088.06;2061714;28;20281;-65
2024/01/01 12:00:36;;;;;;;5.65;1.48;;;;;;;7.64;70.98;96096.56;2056842;28;20258;-63
2024/01/01 12:01:40;;;;;;;11.98;1.60;;;;;;;7.44;72.20;96090.47;2058753;28;20274;-64
2024/01/01 12:02:42;;;;;;;15.30;1.85;;;;;;;7.43;71.96;96074.94;2060239;28;20207;-64
2024/01/01 12:03:44;;;;;;;14.15;2.42;;;;;;;7.41;72.17;96082.78;2059149;28;20290;-65
2024/01/01 12:04:47;;;;;;;12.18;1.40;;;;;;;7.26;71.60;96094.66;2058621;28;20295;-64
2024/01/01 12:05:49;;;;;;;15.77;2.10;;;;;;;7.16;72.55;96094.16;2060479;28;20662;-67
2024/01/01 12:06:51;;;;;;;9.23;2.00;;;;;;;6.84;72.78;96096.28;2058913;28;20306;-67
2024/01/01 12:07:53;;;;;;;22.10;2.72;;;;;;;7.02;72.73;96092.13;2063522;28;20287;-67
2024/01/01 12:09:25;;;;;;;9.07;2.20;;;;;;;7.68;71.15;96091.19;2063183;28;20225;-68
2024/01/01 12:10:28;;;;;;;12.35;2.53;;;;;;;7.57;70.58;96090.78;2049683;28;20649;-73
2024/01/01 12:11:29;;;;;;;9.45;2.15;;;;;;;7.64;70.12;96074.03;2054686;28;20197;-68
2024/01/01 12:12:31;;;;;;;13.48;1.60;;;;;;;7.47;69.72;96082.53;2054330;28;20203;-67
2024/01/01 12:13:33;;;;;;;7.30;1.45;;;;;;;7.58;69.71;96078.63;2040843;28;20201;-66
2024/01/01 12:14:34;;;;;;;10.95;2.17;;;;;;;7.78;69.28;96081.25;2056569;28;20224;-67
2024/01/01 12:15:36;;;;;;;19.67;2.40;;;;;;;8.02;69.30;96075.88;2061041;28;20216;-66
2024/01/01 12:16:37;;;;;;;8.30;1.45;;;;;;;8.01;68.06;96075.06;2062477;28;20930;-65
2024/01/01 12:17:43;;;;;;;8.25;1.73;;;;;;;8.06;67.85;96080.03;2059456;28;20211;-66
2024/01/01 12:18:45;;;;;;;7.72;1.48;;;;;;;8.16;68.11;96076.16;2043729;28;20848;-67
2024/01/01 12:19:46;;;;;;;7.65;1.40;;;;;;;7.47;68.96;96076.50;2058162;28;20242;-66
2024/01/01 12:20:48;;;;;;;8.85;1.55;;;;;;;7.29;70.07;96078.94;2057595;28;20269;-66
2024/01/01 12:21:53;;;;;;;16.15;2.20;;;;;;;7.20;70.78;96068.94;2057209;28;20202;-66
2024/01/01 12:23:10;;;;;;;10.77;1.70;;;;;;;7.54;69.95;96077.91;2059928;28;20190;-67
2024/01/01 12:24:18;;;;;;;11.85;2.90;;;;;;;7.43;69.84;96073.16;2059176;28;20782;-67
2024/01/01 12:25:24;;;;;;;8.90;1.90;;;;;;;7.24;70.51;96072.22;2057921;28;20289;-67
2024/01/01 12:26:25;;;;;;;6.22;1.33;;;;;;;7.22;70.46;96074.88;2058749;28;20264;-67
2024/01/01 12:27:27;;;;;;;10.52;1.85;;;;;;;6.98;70.83;96072.38;2057692;28;20237;-67
2024/01/01 12:28:32;;;;;;;21.75;2.35;;;;;;;6.67;71.30;96052.78;2057365;28;20309;-67
2024/01/01 12:29:33;;;;;;;9.73;2.25;;;;;;;6.60;71.65;96066.06;2064958;28;20227;-67
2024/01/01 12:30:36;;;;;;;7.93;1.38;;;;;;;6.40;72.18;96059.03;2066108;28;20197;-67
2024/01/01 12:31:40;;;;;;;15.02;2.50;;;;;;;6.37;72.50;96063.44;2057346;28;20258;-67
2024/01/01 12:32:42;;;;;;;9.98;2.33;;;;;;;6.55;72.70;96068.81;2057741;28;20258;-67
2024/01/01 12:33:50;;;;;;;15.45;1.63;;;;;;;6.37;72.05;96068.63;2056111;28;20194;-67
2024/01/01 12:34:52;;;;;;;11.18;3.42;;;;;;;6.34;72.82;96065.31;2058646;28;20201;-67
2024/01/01 12:35:53;;;;;;;13.18;1.60;;;;;;;6.30;72.65;96061.97;2058900;28;20304;-67
2024/01/01 12:36:56;;;;;;;7.03;1.80;;;;;;;6.40;72.46;96070.28;2058400;28;20701;-67
2024/01/01 12:37:57;;;;;;;11.55;1.95;;;;;;;6.52;71.73;96067.19;2059598;28;20202;-67
2024/01/01 12:39:00;;;;;;;10.40;1.50;;;;;;;6.50;70.52;96062.97;2056915;28;20616;-67
2024/01/01 12:40:02;;;;;;;14.27;2.38;;;;;;;6.45;70.77;96072.66;2062416;28;20224;-67
2024/01/01 12:41:04;;;;;;;14.52;2.28;;;;;;;6.35;71.76;96062.66;2062879;28;20235;-67
2024/01/01 12:42:06;;;;;;;10.85;1.65;;;;;;;6.26;71.80;96069.91;2058218;28;20215;-67
2024/01/01 12:43:07;;;;;;;6.15;1.35;;;;;;;6.21;72.10;96067.50;2058940;28;20258;-67
2024/01/01 12:44:09;;;;;;;12.18;1.58;;;;;;;6.18;72.48;96067.59;2054416;28;20877;-67
2024/01/01 12:45:12;;;;;;;13.05;2.33;;;;;;;6.19;72.74;96058.94;2057017;28;20227;-67
2024/01/01 12:46:14;;;;;;;13.13;2.45;;;;;;;6.25;72.20;96063.03;2058774;28;20207;-67
2024/01/01 12:47:19;;;;;;;10.25;1.73;;;;;;;6.25;72.27;96055.25;2057394;28;20257;-66
2024/01/01 12:48:30;;;;;;;13.73;2.10;;;;;;;6.13;72.42;96048.78;2062348;28;20210;-73
2024/01/01 12:49:34;;;;;;;10.93;2.47;;;;;;;6.00;72.84;96046.63;2060940;28;20219;-72
2024/01/01 12:50:35;;;;;;;9.80;1.58;;;;;;;5.99;72.93;96044.97;2062212;28;20210;-72
2024/01/01 12:51:37;;;;;;;10.63;2.20;;;;;;;6.10;72.98;96049.75;2062398;28;20202;-73
2024/01/01 12:52:38;;;;;;;10.35;1.95;;;;;;;6.11;72.82;96050.59;2057301;28;20231;-73
2024/01/01 12:53:42;;;;;;;17.30;2.17;;;;;;;6.13;73.17;96048.78;2054375;28;20403;-73
2024/01/01 12:54:44;;;;;;;17.75;2.00;;;;;;;6.08;72.50;96048.94;2058790;28;20203;-67
2024/01/01 12:55:46;;;;;;;13.25;2.30;;;;;;;6.05;72.39;96056.84;2057917;28;20717;-65
2024/01/01 12:56:47;;;;;;;12.75;1.58;;;;;;;6.00;71.57;96062.19;2058885;28;20211;-65
2024/01/01 12:57:49;;;;;;;20.35;2.83;;;;;;;5.99;72.09;96042.38;2058075;28;20199;-65
2024/01/01 12:58:50;;;;;;;9.35;1.70;;;;;;;6.06;71.53;96055.94;2057532;28;20207;-66
2024/01/01 12:59:52;;;;;;;12.77;2.30;;;;;;;6.05;71.67;96055.06;2058143;28;20208;-66
2024/01/01 13:00:53;;;;;;;10.45;2.50;;;;;;;6.09;71.80;96055.81;2057747;28;20253;-67
2024/01/01 13:01:55;;;;;;;17.63;2.20;;;;;;;6.15;72.04;96059.94;2057480;28;20201;-67
2024/01/01 13:02:57;;;;;;;5.65;1.50;;;;;;;6.17;72.11;96051.22;2061426;28;20200;-67
2024/01/01 13:03:58;;;;;;;8.27;1.23;;;;;;;6.18;71.86;96050.31;2061030;28;20227;-67
2024/01/01 13:05:03;;;;;;;7.43;2.20;;;;;;;6.18;71.71;96044.28;2060786;28;20697;-68
2024/01/01 13:06:06;;;;;;;18.25;2.35;;;;;;;6.12;71.71;96045.34;2059533;28;20195;-71
2024/01/01 13:07:10;;;;;;;8.25;1.67;;;;;;;6.13;72.45;96052.25;2057872;28;20286;-73
2024/01/01 13:08:12;;;;;;;6.20;1.80;;;;;;;6.09;72.08;96042.84;2067945;28;20234;-71
2024/01/01 13:09:14;;;;;;;19.48;1.80;;;;;;;6.11;72.05;96053.19;2060028;28;20258;-71
2024/01/01 13:10:16;;;;;;;13.23;1.88;;;;;;;6.11;72.02;96051.44;2059902;28;20199;-71
2024/01/01 13:11:18;;;;;;;13.68;1.70;;;;;;;6.09;72.15;96048.03;2060001;28;20208;-72